Time;durP1;ratioP1;P1;durP2;ratioP2;P2;SDS_P1;SDS_P2;PMS_P1;PMS_P2;Temp;Humidity;BMP_temperature;BMP_pressure;BME280_temperature;BME280_humidity;BME280_pressure;Samples;Min_cycle;Max_cycle;Signal;HPM_P1;HPM_P2
2022/03/03 00:00:08;;;;;;;17.90;12.90;;;;;;;;;;5082899;28;20044;-72
2022/03/03 00:02:35;;;;;;;19.10;12.52;;;;;;;;;;5081039;28;20138;-72
2022/03/03 00:05:01;;;;;;;20.80;13.75;;;;;;;;;;5083927;28;20319;-71
2022/03/03 00:07:27;;;;;;;20.25;12.85;;;;;;;;;;5045970;28;20045;-71
2022/03/03 00:09:53;;;;;;;20.70;13.10;;;;;;;;;;5057573;28;20627;-71
2022/03/03 00:12:19;;;;;;;20.95;13.32;;;;;;;;;;5054735;28;20155;-71
2022/03/03 00:14:45;;;;;;;18.08;12.88;;;;;;;;;;5082730;28;20047;-71
2022/03/03 00:17:11;;;;;;;17.67;12.75;;;;;;;;;;5080751;28;20083;-72
2022/03/03 00:19:37;;;;;;;18.13;12.95;;;;;;;;;;5082271;28;20044;-72
2022/03/03 00:22:04;;;;;;;18.38;12.63;;;;;;;;;;5081000;28;20051;-72
2022/03/03 00:24:30;;;;;;;18.20;12.77;;;;;;;;;;5082318;28;20596;-71
2022/03/03 00:26:56;;;;;;;20.45;13.32;;;;;;;;;;5080614;28;20085;-71
2022/03/03 00:29:22;;;;;;;21.63;13.75;;;;;;;;;;5082620;28;20712;-72
2022/03/03 00:31:48;;;;;;;19.02;13.55;;;;;;;;;;5063643;28;20040;-72
2022/03/03 00:34:14;;;;;;;21.77;14.38;;;;;;;;;;5081861;28;20043;-72
2022/03/03 00:36:41;;;;;;;19.17;13.25;;;;;;;;;;5080542;28;20096;-72
2022/03/03 00:39:07;;;;;;;20.92;14.63;;;;;;;;;;5081630;28;20689;-72
2022/03/03 00:41:33;;;;;;;21.70;14.77;;;;;;;;;;5081400;28;20046;-72
2022/03/03 00:43:59;;;;;;;20.05;14.07;;;;;;;;;;5082335;28;20039;-72
2022/03/03 00:46:25;;;;;;;21.00;14.85;;;;;;;;;;5065855;28;20040;-72
2022/03/03 00:48:52;;;;;;;19.52;13.52;;;;;;;;;;5080186;28;20566;-72
2022/03/03 00:51:18;;;;;;;19.70;13.68;;;;;;;;;;5084192;28;20523;-72
2022/03/03 00:53:44;;;;;;;18.92;13.50;;;;;;;;;;5060543;28;20048;-72
2022/03/03 00:56:10;;;;;;;18.27;13.18;;;;;;;;;;5061786;28;20080;-72
2022/03/03 00:58:36;;;;;;;19.70;13.35;;;;;;;;;;5076741;28;20139;-72
2022/03/03 01:01:02;;;;;;;20.83;13.75;;;;;;;;;;5081485;28;20035;-73
2022/03/03 01:03:28;;;;;;;20.83;13.95;;;;;;;;;;5062849;28;20470;-73
2022/03/03 01:05:54;;;;;;;18.30;12.52;;;;;;;;;;5081779;28;20040;-73
2022/03/03 01:08:20;;;;;;;21.95;14.02;;;;;;;;;;5079009;28;20087;-73
2022/03/03 01:10:47;;;;;;;18.25;12.48;;;;;;;;;;5081241;28;20040;-73
2022/03/03 01:13:12;;;;;;;17.23;12.40;;;;;;;;;;5080066;28;20040;-72
2022/03/03 01:15:38;;;;;;;18.10;12.85;;;;;;;;;;5061284;28;20045;-72
2022/03/03 01:18:04;;;;;;;22.45;13.98;;;;;;;;;;5044922;28;20466;-72
2022/03/03 01:20:30;;;;;;;18.50;13.15;;;;;;;;;;5036951;28;20056;-73
2022/03/03 01:22:57;;;;;;;18.52;12.63;;;;;;;;;;5063028;28;20039;-73
2022/03/03 01:25:23;;;;;;;17.40;12.48;;;;;;;;;;5081607;28;20046;-73
2022/03/03 01:27:49;;;;;;;18.15;12.50;;;;;;;;;;5079538;28;20040;-72
2022/03/03 01:30:15;;;;;;;19.63;12.43;;;;;;;;;;5081420;28;20052;-72
2022/03/03 01:32:41;;;;;;;18.23;12.60;;;;;;;;;;5080012;28;20182;-72
2022/03/03 01:35:07;;;;;;;18.38;12.45;;;;;;;;;;5065110;28;20040;-73
2022/03/03 01:37:33;;;;;;;17.42;12.02;;;;;;;;;;5079770;28;20082;-72
2022/03/03 01:40:00;;;;;;;17.77;12.23;;;;;;;;;;5081569;28;20075;-71
2022/03/03 01:42:26;;;;;;;17.88;12.05;;;;;;;;;;5079624;28;20040;-71
2022/03/03 01:44:52;;;;;;;19.08;12.43;;;;;;;;;;5080543;28;20092;-71
2022/03/03 01:47:18;;;;;;;19.10;12.50;;;;;;;;;;5079499;28;20042;-72
2022/03/03 01:49:45;;;;;;;17.85;12.75;;;;;;;;;;5081024;28;20641;-71
2022/03/03 01:52:11;;;;;;;16.13;11.27;;;;;;;;;;5079431;28;20177;-72
2022/03/03 01:54:37;;;;;;;17.70;12.00;;;;;;;;;;5079576;28;20043;-72
2022/03/03 01:57:03;;;;;;;17.35;11.57;;;;;;;;;;5079012;28;20486;-72
2022/03/03 01:59:29;;;;;;;17.08;12.07;;;;;;;;;;5081066;28;20052;-71
2022/03/03 02:01:55;;;;;;;18.33;12.00;;;;;;;;;;5079820;28;20112;-72
2022/03/03 02:04:21;;;;;;;17.33;11.82;;;;;;;;;;5070307;28;21238;-71
2022/03/03 02:06:47;;;;;;;18.20;11.98;;;;;;;;;;5061368;28;20049;-72
2022/03/03 02:09:13;;;;;;;19.02;12.32;;;;;;;;;;5041180;28;20055;-73
2022/03/03 02:11:39;;;;;;;16.77;11.18;;;;;;;;;;5075320;28;20139;-71
2022/03/03 02:14:05;;;;;;;17.10;11.85;;;;;;;;;;5080651;28;20108;-73
2022/03/03 02:16:32;;;;;;;16.52;11.43;;;;;;;;;;5081209;28;20092;-73
2022/03/03 02:18:58;;;;;;;16.30;11.07;;;;;;;;;;5096132;28;20123;-73
2022/03/03 02:21:24;;;;;;;17.15;11.73;;;;;;;;;;5079811;28;20147;-72
2022/03/03 02:23:50;;;;;;;16.75;11.45;;;;;;;;;;5077460;28;20135;-72
2022/03/03 02:26:18;;;;;;;17.15;12.15;;;;;;;;;;5062320;28;20040;-72
2022/03/03 02:28:44;;;;;;;16.08;11.27;;;;;;;;;;5077443;28;20539;-70
2022/03/03 02:31:10;;;;;;;17.30;11.15;;;;;;;;;;5079418;28;20083;-71
2022/03/03 02:33:36;;;;;;;16.17;11.30;;;;;;;;;;5080675;28;20039;-71
2022/03/03 02:36:23;;;;;;;16.02;10.63;;;;;;;;;;5082838;28;20705;-72
2022/03/03 02:38:50;;;;;;;17.90;12.30;;;;;;;;;;5080532;28;20059;-70
2022/03/03 02:41:16;;;;;;;16.65;11.73;;;;;;;;;;5066080;28;20044;-72
2022/03/03 02:43:43;;;;;;;18.23;11.73;;;;;;;;;;5081371;28;20050;-71
2022/03/03 02:46:09;;;;;;;18.52;11.57;;;;;;;;;;5085680;28;20398;-72
2022/03/03 02:48:35;;;;;;;17.63;12.23;;;;;;;;;;5082792;28;20066;-71
2022/03/03 02:51:01;;;;;;;18.27;11.93;;;;;;;;;;5084480;28;20044;-71
2022/03/03 02:53:27;;;;;;;16.42;12.00;;;;;;;;;;5035601;28;20048;-71
2022/03/03 02:55:53;;;;;;;16.17;11.20;;;;;;;;;;5043664;28;20045;-72
2022/03/03 02:58:19;;;;;;;16.77;11.65;;;;;;;;;;5072428;28;20659;-71
2022/03/03 03:00:47;;;;;;;16.25;11.07;;;;;;;;;;5067369;28;20071;-71
2022/03/03 03:03:13;;;;;;;17.75;11.63;;;;;;;;;;5081847;28;20070;-71
2022/03/03 03:05:39;;;;;;;18.55;11.88;;;;;;;;;;5083743;28;20089;-72
2022/03/03 03:08:06;;;;;;;15.57;11.00;;;;;;;;;;5080917;28;20086;-71
2022/03/03 03:10:32;;;;;;;16.50;11.55;;;;;;;;;;5085009;28;20051;-71
2022/03/03 03:12:58;;;;;;;16.63;10.95;;;;;;;;;;5082183;28;20576;-72
2022/03/03 03:15:24;;;;;;;17.90;12.18;;;;;;;;;;5083805;28;20576;-72
2022/03/03 03:17:50;;;;;;;19.25;13.40;;;;;;;;;;5075120;28;20048;-70
2022/03/03 03:20:17;;;;;;;18.48;12.55;;;;;;;;;;5084174;28;20107;-72
2022/03/03 03:22:43;;;;;;;17.50;12.30;;;;;;;;;;5081452;28;20047;-72
2022/03/03 03:25:10;;;;;;;17.30;11.68;;;;;;;;;;5083786;28;20398;-71
2022/03/03 03:27:36;;;;;;;16.13;11.43;;;;;;;;;;5082651;28;20154;-71
2022/03/03 03:30:03;;;;;;;17.05;11.20;;;;;;;;;;5083589;28;20126;-71
2022/03/03 03:32:29;;;;;;;16.25;11.15;;;;;;;;;;5081954;28;20055;-70
2022/03/03 03:34:55;;;;;;;18.38;11.57;;;;;;;;;;5067130;28;20048;-72
2022/03/03 03:37:21;;;;;;;18.05;11.63;;;;;;;;;;5081664;28;20150;-72
2022/03/03 03:39:47;;;;;;;19.65;12.88;;;;;;;;;;5083661;28;20602;-71
2022/03/03 03:42:13;;;;;;;17.55;11.23;;;;;;;;;;5080927;28;20048;-71
2022/03/03 03:44:39;;;;;;;16.88;11.02;;;;;;;;;;5082123;28;20414;-71
2022/03/03 03:47:06;;;;;;;18.23;11.82;;;;;;;;;;5073634;28;20041;-71
2022/03/03 03:49:33;;;;;;;15.90;10.82;;;;;;;;;;5043181;28;20068;-71
2022/03/03 03:51:59;;;;;;;17.83;11.93;;;;;;;;;;5049035;28;20051;-71
2022/03/03 03:54:25;;;;;;;19.65;13.30;;;;;;;;;;5082745;28;20093;-71
2022/03/03 03:56:51;;;;;;;18.70;12.48;;;;;;;;;;5081779;28;20204;-71
2022/03/03 03:59:17;;;;;;;18.23;12.73;;;;;;;;;;5083233;28;20159;-71
2022/03/03 04:01:43;;;;;;;17.52;12.20;;;;;;;;;;5081238;28;20050;-72
2022/03/03 04:04:09;;;;;;;17.02;12.23;;;;;;;;;;5082481;28;20580;-71
2022/03/03 04:06:36;;;;;;;19.38;14.32;;;;;;;;;;5082045;28;20040;-71
2022/03/03 04:09:03;;;;;;;18.42;13.27;;;;;;;;;;5116336;27;20153;-71
2022/03/03 04:11:29;;;;;;;18.70;13.25;;;;;;;;;;5082937;28;20580;-71
2022/03/03 04:13:56;;;;;;;18.70;13.07;;;;;;;;;;5064455;28;20653;-71
2022/03/03 04:16:23;;;;;;;19.17;13.93;;;;;;;;;;5065934;28;20290;-71
2022/03/03 04:18:49;;;;;;;19.67;13.05;;;;;;;;;;5080110;28;20055;-71
2022/03/03 04:21:15;;;;;;;18.35;12.32;;;;;;;;;;5065269;28;20703;-71
2022/03/03 04:23:41;;;;;;;18.67;12.73;;;;;;;;;;5062832;28;20123;-71
2022/03/03 04:26:07;;;;;;;18.17;12.55;;;;;;;;;;5082745;28;20119;-71
2022/03/03 04:28:33;;;;;;;18.05;13.10;;;;;;;;;;5082340;28;20810;-71
2022/03/03 04:30:59;;;;;;;17.33;12.60;;;;;;;;;;5081904;28;20048;-72
2022/03/03 04:33:25;;;;;;;18.25;12.77;;;;;;;;;;5080951;28;20494;-71
2022/03/03 04:35:51;;;;;;;18.85;12.48;;;;;;;;;;5081941;28;20050;-71
2022/03/03 04:38:17;;;;;;;17.35;12.38;;;;;;;;;;5061443;28;20087;-71
2022/03/03 04:40:43;;;;;;;17.52;12.27;;;;;;;;;;5082211;28;20063;-71
2022/03/03 04:43:09;;;;;;;16.05;11.52;;;;;;;;;;5079803;28;20051;-71
2022/03/03 04:45:35;;;;;;;18.02;12.55;;;;;;;;;;5064990;28;20113;-71
2022/03/03 04:48:01;;;;;;;16.92;11.45;;;;;;;;;;5079662;28;20108;-72
2022/03/03 04:50:28;;;;;;;18.15;12.27;;;;;;;;;;5081617;28;20035;-71
2022/03/03 04:52:54;;;;;;;19.38;12.70;;;;;;;;;;5079875;28;20111;-71
2022/03/03 04:55:20;;;;;;;18.05;12.07;;;;;;;;;;5081049;28;20139;-71
2022/03/03 04:57:46;;;;;;;15.90;11.27;;;;;;;;;;5080664;28;20154;-71
2022/03/03 05:00:12;;;;;;;17.70;11.60;;;;;;;;;;5081562;28;20051;-72
2022/03/03 05:02:38;;;;;;;16.45;11.90;;;;;;;;;;5079230;28;20412;-71
2022/03/03 05:05:05;;;;;;;15.13;10.80;;;;;;;;;;5082003;28;20568;-71
2022/03/03 05:07:31;;;;;;;18.60;12.05;;;;;;;;;;5078662;28;20124;-71
2022/03/03 05:09:57;;;;;;;17.20;12.55;;;;;;;;;;5081305;28;20203;-71
2022/03/03 05:12:23;;;;;;;17.85;12.75;;;;;;;;;;5080237;28;20127;-72
2022/03/03 05:14:50;;;;;;;17.30;12.35;;;;;;;;;;5081278;28;20155;-72
2022/03/03 05:17:16;;;;;;;16.25;11.55;;;;;;;;;;5063820;28;20122;-72
2022/03/03 05:19:42;;;;;;;16.20;11.98;;;;;;;;;;5081863;28;20047;-72
2022/03/03 05:22:08;;;;;;;19.20;12.63;;;;;;;;;;5079636;28;20055;-72
2022/03/03 05:24:34;;;;;;;17.38;11.80;;;;;;;;;;5063893;28;20060;-72
2022/03/03 05:27:00;;;;;;;19.02;13.20;;;;;;;;;;5079178;28;20515;-72
2022/03/03 05:29:27;;;;;;;18.60;13.18;;;;;;;;;;5081225;28;20052;-72
2022/03/03 05:31:57;;;;;;;19.05;13.25;;;;;;;;;;5079344;28;20115;-72
2022/03/03 05:34:23;;;;;;;18.02;12.77;;;;;;;;;;5081474;28;20043;-72
2022/03/03 05:36:49;;;;;;;16.35;11.85;;;;;;;;;;5079012;28;20081;-72
2022/03/03 05:39:16;;;;;;;17.27;11.35;;;;;;;;;;5080942;28;20048;-72
2022/03/03 05:41:42;;;;;;;17.55;11.82;;;;;;;;;;5063089;28;20051;-71
2022/03/03 05:44:11;;;;;;;19.80;11.90;;;;;;;;;;5081013;28;20130;-72
2022/03/03 05:46:37;;;;;;;18.75;13.07;;;;;;;;;;5034048;28;20045;-72
2022/03/03 05:49:04;;;;;;;16.65;11.38;;;;;;;;;;5051566;28;20046;-72
2022/03/03 05:51:31;;;;;;;14.98;10.75;;;;;;;;;;5060194;28;20043;-72
2022/03/03 05:53:57;;;;;;;15.80;11.00;;;;;;;;;;5077793;28;20043;-72
2022/03/03 05:56:23;;;;;;;16.58;11.38;;;;;;;;;;5081693;28;20469;-72
2022/03/03 05:58:49;;;;;;;15.88;11.68;;;;;;;;;;5079891;28;20040;-71
2022/03/03 06:01:16;;;;;;;18.52;12.13;;;;;;;;;;5080729;28;20510;-73
2022/03/03 06:03:42;;;;;;;17.20;11.88;;;;;;;;;;5067447;28;21697;-72
2022/03/03 06:06:14;;;;;;;16.63;11.68;;;;;;;;;;5017875;28;20119;-71
2022/03/03 06:08:41;;;;;;;17.27;11.60;;;;;;;;;;5027965;28;20621;-71
2022/03/03 06:11:10;;;;;;;17.75;11.80;;;;;;;;;;5087648;28;20064;-71
2022/03/03 06:13:39;;;;;;;17.85;11.55;;;;;;;;;;5077716;28;20040;-71
2022/03/03 06:16:05;;;;;;;17.33;11.65;;;;;;;;;;5085431;28;20040;-71
2022/03/03 06:18:33;;;;;;;17.45;11.68;;;;;;;;;;5066731;28;20040;-71
2022/03/03 06:20:59;;;;;;;15.90;11.90;;;;;;;;;;5085284;28;20621;-71
2022/03/03 06:23:26;;;;;;;16.90;12.00;;;;;;;;;;5073164;28;20040;-71
2022/03/03 06:25:57;;;;;;;15.65;10.73;;;;;;;;;;5042705;28;20585;-71
2022/03/03 06:28:23;;;;;;;16.63;11.68;;;;;;;;;;5036401;28;20101;-71
2022/03/03 06:30:49;;;;;;;17.10;11.63;;;;;;;;;;5062996;28;20652;-72
2022/03/03 06:33:15;;;;;;;17.40;11.23;;;;;;;;;;5081652;27;20041;-71
2022/03/03 06:35:41;;;;;;;16.67;11.75;;;;;;;;;;5060896;28;20033;-71
2022/03/03 06:38:07;;;;;;;15.95;11.02;;;;;;;;;;5068784;28;20339;-72
2022/03/03 06:40:34;;;;;;;16.98;11.75;;;;;;;;;;5063696;28;20032;-72
2022/03/03 06:43:00;;;;;;;17.38;11.57;;;;;;;;;;5061372;28;20148;-72
2022/03/03 06:45:27;;;;;;;17.52;12.05;;;;;;;;;;5064524;28;20118;-72
2022/03/03 06:47:57;;;;;;;17.58;12.27;;;;;;;;;;5096235;27;20043;-71
2022/03/03 06:50:23;;;;;;;16.95;11.57;;;;;;;;;;5080773;28;20139;-72
2022/03/03 06:52:49;;;;;;;16.20;11.52;;;;;;;;;;5064909;28;20166;-72
2022/03/03 06:55:20;;;;;;;16.45;11.32;;;;;;;;;;5068978;28;20055;-72
2022/03/03 06:57:48;;;;;;;15.77;11.35;;;;;;;;;;5063004;28;20051;-72
2022/03/03 07:00:14;;;;;;;15.70;11.43;;;;;;;;;;5063809;28;20062;-71
2022/03/03 07:02:41;;;;;;;19.15;13.15;;;;;;;;;;5049499;28;20122;-71
2022/03/03 07:05:07;;;;;;;16.55;11.65;;;;;;;;;;5054956;28;20106;-72
2022/03/03 07:07:34;;;;;;;16.88;11.43;;;;;;;;;;5043698;28;21066;-72
2022/03/03 07:10:01;;;;;;;18.17;12.05;;;;;;;;;;5071172;28;20068;-72
2022/03/03 07:12:28;;;;;;;17.50;11.80;;;;;;;;;;5090433;27;20059;-71
2022/03/03 07:14:54;;;;;;;17.50;12.48;;;;;;;;;;5061081;28;20056;-71
2022/03/03 07:17:26;;;;;;;18.77;12.32;;;;;;;;;;5029964;28;20097;-73
2022/03/03 07:20:04;;;;;;;19.27;11.77;;;;;;;;;;5058227;28;20037;-73
2022/03/03 07:22:34;;;;;;;19.63;13.07;;;;;;;;;;5081401;27;20101;-73
2022/03/03 07:25:03;;;;;;;19.48;11.73;;;;;;;;;;5052075;28;20042;-73
2022/03/03 07:27:29;;;;;;;17.05;12.50;;;;;;;;;;5070428;28;20570;-72
2022/03/03 07:29:59;;;;;;;18.77;13.35;;;;;;;;;;5083783;28;20058;-72
2022/03/03 07:32:29;;;;;;;18.13;12.57;;;;;;;;;;5081841;28;20105;-73
2022/03/03 07:34:59;;;;;;;17.70;11.77;;;;;;;;;;5076684;28;20442;-73
2022/03/03 07:37:31;;;;;;;19.02;12.48;;;;;;;;;;5057343;28;20044;-73
2022/03/03 07:40:01;;;;;;;20.33;13.38;;;;;;;;;;5046595;28;20051;-73
2022/03/03 07:42:27;;;;;;;21.83;13.50;;;;;;;;;;5063745;28;20083;-73
2022/03/03 07:44:53;;;;;;;18.55;12.27;;;;;;;;;;5062478;28;20131;-73
2022/03/03 07:47:20;;;;;;;18.30;12.02;;;;;;;;;;5033422;28;20053;-72
2022/03/03 07:49:46;;;;;;;18.90;12.70;;;;;;;;;;5054277;28;20040;-73
2022/03/03 07:52:12;;;;;;;17.75;12.57;;;;;;;;;;5079355;27;20033;-73
2022/03/03 07:54:38;;;;;;;17.80;12.05;;;;;;;;;;5042146;28;20087;-73
2022/03/03 07:57:07;;;;;;;20.52;13.45;;;;;;;;;;5078910;28;20044;-72
2022/03/03 07:59:34;;;;;;;19.15;12.70;;;;;;;;;;5075637;28;20057;-72
2022/03/03 08:02:04;;;;;;;18.70;13.02;;;;;;;;;;5079205;28;20653;-72
2022/03/03 08:04:32;;;;;;;17.85;12.57;;;;;;;;;;5033166;28;20053;-73
2022/03/03 08:07:05;;;;;;;17.30;11.75;;;;;;;;;;5079087;28;20040;-73
2022/03/03 08:09:32;;;;;;;17.23;12.20;;;;;;;;;;5042378;28;20134;-73
2022/03/03 08:11:59;;;;;;;17.25;12.10;;;;;;;;;;5061664;28;20139;-73
2022/03/03 08:14:25;;;;;;;19.90;11.73;;;;;;;;;;5064228;28;20103;-73
2022/03/03 08:16:51;;;;;;;16.85;11.60;;;;;;;;;;5064023;28;20064;-73
2022/03/03 08:19:17;;;;;;;17.65;11.75;;;;;;;;;;5082820;28;20043;-73
2022/03/03 08:21:47;;;;;;;18.42;11.60;;;;;;;;;;5081679;28;20373;-73
2022/03/03 08:24:13;;;;;;;16.23;11.30;;;;;;;;;;5083045;28;20032;-73
2022/03/03 08:26:41;;;;;;;19.10;12.07;;;;;;;;;;5081790;28;20040;-73
2022/03/03 08:29:08;;;;;;;17.75;11.57;;;;;;;;;;5065610;28;20481;-73
2022/03/03 08:31:41;;;;;;;18.23;11.40;;;;;;;;;;5064880;28;20040;-73
2022/03/03 08:34:12;;;;;;;17.73;11.80;;;;;;;;;;5058881;28;20153;-73
2022/03/03 08:36:48;;;;;;;16.38;11.25;;;;;;;;;;5043293;28;20052;-73
2022/03/03 08:39:16;;;;;;;17.02;12.15;;;;;;;;;;5061503;28;20056;-73
2022/03/03 08:41:42;;;;;;;16.23;11.35;;;;;;;;;;5044320;28;20044;-73
2022/03/03 08:44:09;;;;;;;16.98;11.77;;;;;;;;;;5067588;28;20048;-73
2022/03/03 08:46:36;;;;;;;16.92;11.25;;;;;;;;;;5078072;28;20075;-73
2022/03/03 08:49:04;;;;;;;17.23;12.27;;;;;;;;;;5065048;28;20039;-74
2022/03/03 08:51:31;;;;;;;19.83;11.75;;;;;;;;;;5062462;28;20075;-74
2022/03/03 08:53:57;;;;;;;20.33;12.70;;;;;;;;;;5081365;28;20566;-72
2022/03/03 08:56:23;;;;;;;18.55;11.95;;;;;;;;;;5083333;28;20070;-72
2022/03/03 08:58:49;;;;;;;16.38;11.23;;;;;;;;;;5081220;28;20689;-73
2022/03/03 09:01:15;;;;;;;17.02;10.90;;;;;;;;;;5083040;28;20490;-72
2022/03/03 09:03:43;;;;;;;16.45;10.90;;;;;;;;;;5081581;28;20097;-73
2022/03/03 09:06:09;;;;;;;18.10;10.98;;;;;;;;;;5083241;28;20147;-73
2022/03/03 09:08:35;;;;;;;17.33;11.18;;;;;;;;;;5071076;28;20127;-73
2022/03/03 09:11:01;;;;;;;17.55;11.10;;;;;;;;;;5071213;27;20049;-73
2022/03/03 09:13:27;;;;;;;16.38;11.18;;;;;;;;;;5039058;28;20729;-73
2022/03/03 09:15:53;;;;;;;14.73;9.95;;;;;;;;;;5072895;28;20059;-73
2022/03/03 09:18:19;;;;;;;14.00;9.90;;;;;;;;;;5059755;28;20044;-73
2022/03/03 09:20:45;;;;;;;17.20;10.70;;;;;;;;;;5059976;28;20613;-71
2022/03/03 09:23:11;;;;;;;16.55;10.25;;;;;;;;;;5059264;28;20157;-71
2022/03/03 09:25:39;;;;;;;15.77;10.48;;;;;;;;;;5042516;28;20048;-72
2022/03/03 09:28:06;;;;;;;14.32;9.80;;;;;;;;;;5063158;28;20049;-71
2022/03/03 09:30:32;;;;;;;16.20;9.60;;;;;;;;;;5056965;28;20075;-72
2022/03/03 09:32:58;;;;;;;14.43;9.68;;;;;;;;;;5058018;28;20105;-72
2022/03/03 09:35:26;;;;;;;14.65;10.35;;;;;;;;;;5060126;28;20112;-72
2022/03/03 09:37:52;;;;;;;13.77;9.60;;;;;;;;;;5058417;28;20052;-73
2022/03/03 09:40:18;;;;;;;14.52;8.98;;;;;;;;;;5058038;28;20059;-71
2022/03/03 09:42:57;;;;;;;13.55;9.07;;;;;;;;;;5057734;28;20044;-71
2022/03/03 09:45:23;;;;;;;15.25;9.65;;;;;;;;;;5058963;28;20115;-71
2022/03/03 09:47:52;;;;;;;14.52;9.40;;;;;;;;;;5056893;28;20090;-71
2022/03/03 09:50:19;;;;;;;12.15;8.23;;;;;;;;;;5060693;28;20044;-72
2022/03/03 09:52:45;;;;;;;14.02;9.15;;;;;;;;;;5058645;28;20048;-73
2022/03/03 09:55:11;;;;;;;11.95;8.43;;;;;;;;;;5061683;28;20334;-73
2022/03/03 09:57:37;;;;;;;13.43;8.85;;;;;;;;;;5062600;28;20052;-72
2022/03/03 10:00:05;;;;;;;12.73;8.32;;;;;;;;;;5059843;28;20044;-71
2022/03/03 10:02:32;;;;;;;13.82;8.65;;;;;;;;;;5045266;28;20048;-72
2022/03/03 10:04:58;;;;;;;12.32;8.20;;;;;;;;;;5059895;28;20106;-72
2022/03/03 10:07:25;;;;;;;13.07;8.68;;;;;;;;;;5073346;28;20037;-71
2022/03/03 10:10:02;;;;;;;12.68;8.25;;;;;;;;;;5059235;28;20544;-72
2022/03/03 10:12:30;;;;;;;13.98;8.20;;;;;;;;;;5059437;28;20116;-71
2022/03/03 10:14:57;;;;;;;13.60;8.55;;;;;;;;;;5059085;28;20040;-71
2022/03/03 19:09:47;;;;;;;6.05;3.08;;;;;;;;;;1501992;26;20040;-71
2022/03/03 19:12:14;;;;;;;7.47;2.95;;;;;;;;;;5066690;28;20036;-71
2022/03/03 19:14:41;;;;;;;6.05;3.28;;;;;;;;;;5061730;28;20051;-71
2022/03/03 19:17:08;;;;;;;9.82;3.38;;;;;;;;;;5038554;28;20040;-71
2022/03/03 19:19:35;;;;;;;6.93;3.35;;;;;;;;;;5047277;28;20090;-71
2022/03/03 19:22:01;;;;;;;6.68;3.03;;;;;;;;;;5064280;28;20110;-71
2022/03/03 19:24:28;;;;;;;6.22;3.10;;;;;;;;;;5045548;28;20052;-71
2022/03/03 19:26:54;;;;;;;6.57;3.10;;;;;;;;;;5034522;28;20044;-71
2022/03/03 19:29:20;;;;;;;7.43;3.03;;;;;;;;;;5044893;28;20040;-71
2022/03/03 19:31:46;;;;;;;6.45;3.08;;;;;;;;;;5063905;28;20043;-71
2022/03/03 19:34:15;;;;;;;6.18;2.90;;;;;;;;;;5062318;28;20087;-70
2022/03/03 19:36:47;;;;;;;9.00;3.67;;;;;;;;;;5053619;28;20040;-72
2022/03/03 19:39:13;;;;;;;6.50;3.60;;;;;;;;;;5013750;28;20051;-71
2022/03/03 19:41:39;;;;;;;7.82;3.50;;;;;;;;;;5037259;28;20746;-72
2022/03/03 19:44:06;;;;;;;6.63;3.03;;;;;;;;;;5051355;28;20083;-72
2022/03/03 19:46:32;;;;;;;7.22;3.63;;;;;;;;;;5051937;28;20052;-71
2022/03/03 19:48:58;;;;;;;8.10;3.90;;;;;;;;;;5052001;28;20051;-71
2022/03/03 19:51:24;;;;;;;7.22;3.35;;;;;;;;;;5035824;28;20097;-71
2022/03/03 19:53:50;;;;;;;6.68;3.10;;;;;;;;;;5034352;28;20109;-71
2022/03/03 19:56:16;;;;;;;6.88;3.30;;;;;;;;;;5036712;28;20048;-71
2022/03/03 19:58:42;;;;;;;7.55;3.60;;;;;;;;;;5035896;28;21408;-71
2022/03/03 20:01:08;;;;;;;6.93;3.63;;;;;;;;;;5051234;28;20136;-71
2022/03/03 20:03:34;;;;;;;8.45;3.92;;;;;;;;;;5050190;28;20055;-71
2022/03/03 20:06:00;;;;;;;8.20;4.05;;;;;;;;;;5048500;28;20036;-71
2022/03/03 20:10:54;;;;;;;9.15;3.83;;;;;;;;;;5010535;28;20086;-71
2022/03/03 20:11:12;;;;;;;7.97;3.85;;;;;;;;;;5050637;28;20056;-70
2022/03/03 20:13:39;;;;;;;7.18;3.58;;;;;;;;;;5051147;28;20078;-71
2022/03/03 20:16:05;;;;;;;7.68;4.20;;;;;;;;;;5068588;28;20123;-71
2022/03/03 20:18:31;;;;;;;7.97;4.50;;;;;;;;;;5044480;28;20062;-71
2022/03/03 20:21:10;;;;;;;8.38;4.50;;;;;;;;;;5029887;28;20547;-72
2022/03/03 20:23:36;;;;;;;6.90;3.63;;;;;;;;;;5048974;28;20682;-72
2022/03/03 20:26:02;;;;;;;7.30;3.78;;;;;;;;;;5066756;28;20055;-71
2022/03/03 20:28:29;;;;;;;6.55;3.97;;;;;;;;;;5067068;28;20227;-71
2022/03/03 20:30:55;;;;;;;7.22;4.15;;;;;;;;;;5066056;28;20074;-71
2022/03/03 20:33:21;;;;;;;6.72;3.92;;;;;;;;;;5051902;28;20063;-71
2022/03/03 20:35:47;;;;;;;6.65;3.80;;;;;;;;;;5070328;28;20154;-72
2022/03/03 20:38:14;;;;;;;7.70;3.97;;;;;;;;;;5070613;28;20241;-72
2022/03/03 20:40:40;;;;;;;7.80;4.38;;;;;;;;;;5066805;28;20055;-70
2022/03/03 20:43:06;;;;;;;8.02;4.93;;;;;;;;;;5054200;28;20137;-70
2022/03/03 20:45:32;;;;;;;8.25;4.88;;;;;;;;;;5053528;28;20052;-72
2022/03/03 20:48:11;;;;;;;8.10;4.25;;;;;;;;;;5051205;28;20043;-72
2022/03/03 20:50:38;;;;;;;8.13;4.65;;;;;;;;;;5024954;28;20036;-70
2022/03/03 20:53:04;;;;;;;8.00;4.35;;;;;;;;;;5058294;28;20043;-69
2022/03/03 20:55:29;;;;;;;7.95;4.50;;;;;;;;;;5068459;28;20040;-70
2022/03/03 20:57:56;;;;;;;8.10;4.05;;;;;;;;;;5067606;28;20086;-70
2022/03/03 21:00:21;;;;;;;10.70;4.30;;;;;;;;;;5066197;28;20131;-70
2022/03/03 21:02:47;;;;;;;8.32;5.25;;;;;;;;;;5067895;28;20054;-70
2022/03/03 21:05:14;;;;;;;8.52;5.10;;;;;;;;;;5050667;28;20047;-70
2022/03/03 21:07:41;;;;;;;8.00;4.78;;;;;;;;;;5052022;28;20044;-70
2022/03/03 21:10:08;;;;;;;8.52;5.32;;;;;;;;;;5049762;28;20110;-70
2022/03/03 21:12:34;;;;;;;9.15;4.70;;;;;;;;;;5045093;28;20078;-70
2022/03/03 21:15:03;;;;;;;8.70;5.30;;;;;;;;;;5068824;28;20619;-70
2022/03/03 21:17:30;;;;;;;8.77;5.82;;;;;;;;;;5068644;28;20150;-71
2022/03/03 21:19:56;;;;;;;9.88;5.65;;;;;;;;;;5049412;28;20145;-72
2022/03/03 21:22:22;;;;;;;9.07;4.88;;;;;;;;;;5068339;28;21472;-71
2022/03/03 21:24:48;;;;;;;8.90;5.53;;;;;;;;;;5067265;28;20052;-71
2022/03/03 21:27:14;;;;;;;10.13;5.13;;;;;;;;;;5066917;28;20211;-71
2022/03/03 21:29:40;;;;;;;7.93;5.05;;;;;;;;;;5047541;28;20055;-71
2022/03/03 21:32:06;;;;;;;10.48;5.60;;;;;;;;;;5066351;28;20047;-71
2022/03/03 21:34:33;;;;;;;8.18;4.90;;;;;;;;;;5050994;28;20685;-70
2022/03/03 21:36:59;;;;;;;9.75;5.82;;;;;;;;;;5053387;28;20744;-70
2022/03/03 21:39:25;;;;;;;9.85;5.65;;;;;;;;;;5025079;28;20511;-70
2022/03/03 21:41:53;;;;;;;8.27;5.00;;;;;;;;;;5061118;28;20675;-70
2022/03/03 21:44:19;;;;;;;7.95;4.80;;;;;;;;;;5033077;28;20043;-70
2022/03/03 21:46:46;;;;;;;8.77;4.88;;;;;;;;;;5051527;28;20097;-70
2022/03/03 21:49:12;;;;;;;8.70;4.95;;;;;;;;;;5065883;28;20154;-71
2022/03/03 21:51:41;;;;;;;8.75;5.32;;;;;;;;;;5069251;28;20152;-70
2022/03/03 21:54:08;;;;;;;8.77;5.13;;;;;;;;;;5051051;28;20051;-70
